createdAt,value
2023-02-02T00:00:00.956Z,6.70
2023-02-02T00:02:29.088Z,6.72
2023-02-02T00:04:58.869Z,6.75
2023-02-02T00:07:26.809Z,6.76
2023-02-02T00:09:54.823Z,6.78
2023-02-02T00:12:22.903Z,6.74
2023-02-02T00:14:52.214Z,6.72
2023-02-02T00:17:20.239Z,6.73
2023-02-02T00:19:49.088Z,6.73
2023-02-02T00:22:17.209Z,6.79
2023-02-02T00:24:45.213Z,6.80
2023-02-02T00:27:13.222Z,6.80
2023-02-02T00:29:41.364Z,6.82
2023-02-02T00:32:10.731Z,6.82
2023-02-02T00:34:38.828Z,6.83
2023-02-02T00:37:07.017Z,6.84
2023-02-02T00:39:35.035Z,6.89
2023-02-02T00:42:03.151Z,6.88
2023-02-02T00:44:48.418Z,6.82
2023-02-02T00:47:18.228Z,6.81
2023-02-02T00:49:46.710Z,6.82
2023-02-02T00:52:14.881Z,6.83
2023-02-02T00:54:42.837Z,6.84
2023-02-02T00:57:13.773Z,6.83
2023-02-02T00:59:41.918Z,6.83
2023-02-02T01:02:10.839Z,6.87
2023-02-02T01:04:40.788Z,6.85
2023-02-02T01:07:08.784Z,6.82
2023-02-02T01:09:36.743Z,6.84
2023-02-02T01:12:04.843Z,6.89
2023-02-02T01:14:32.816Z,6.94
2023-02-02T01:17:00.949Z,6.93
2023-02-02T01:19:28.965Z,6.90
2023-02-02T01:21:58.416Z,6.91
2023-02-02T01:24:26.401Z,6.90
2023-02-02T01:26:54.342Z,6.93
2023-02-02T01:29:22.527Z,6.93
2023-02-02T01:31:50.547Z,6.90
2023-02-02T01:34:18.618Z,6.93
2023-02-02T01:36:46.636Z,6.99
2023-02-02T01:39:16.101Z,7.07
2023-02-02T01:41:44.206Z,7.13
2023-02-02T01:44:45.649Z,7.15
2023-02-02T01:47:14.309Z,7.12
2023-02-02T01:49:45.621Z,7.12
2023-02-02T01:52:16.202Z,7.12
2023-02-02T01:54:49.257Z,7.16
2023-02-02T01:57:26.851Z,7.21
2023-02-02T01:59:57.390Z,7.24
2023-02-02T02:02:26.780Z,7.21
2023-02-02T02:04:56.433Z,7.19
2023-02-02T02:07:25.186Z,7.18
2023-02-02T02:09:54.602Z,7.12
2023-02-02T02:12:22.668Z,7.17
2023-02-02T02:15:09.625Z,7.23
2023-02-02T02:17:48.775Z,7.20
2023-02-02T02:20:58.314Z,7.15
2023-02-02T02:24:19.805Z,7.16
2023-02-02T02:27:25.254Z,7.28
2023-02-02T02:30:20.990Z,7.33
2023-02-02T02:32:53.773Z,7.35
2023-02-02T02:35:32.242Z,7.35
2023-02-02T02:38:06.010Z,7.43
2023-02-02T02:40:39.090Z,7.47
2023-02-02T02:43:13.802Z,7.46
2023-02-02T02:45:44.763Z,7.48
2023-02-02T02:48:14.861Z,7.50
2023-02-02T02:50:42.984Z,7.53
2023-02-02T02:53:16.609Z,7.54
2023-02-02T02:55:59.125Z,7.55
2023-02-02T02:58:37.321Z,7.48
2023-02-02T03:01:16.309Z,7.42
2023-02-02T03:03:58.125Z,7.42
2023-02-02T03:06:34.144Z,7.41
2023-02-02T03:09:06.288Z,7.38
2023-02-02T03:11:36.044Z,7.43
2023-02-02T03:14:07.173Z,7.51
2023-02-02T03:16:35.141Z,7.57
2023-02-02T03:19:05.633Z,7.60
2023-02-02T03:21:34.174Z,7.59
2023-02-02T03:24:02.411Z,7.55
2023-02-02T03:26:30.736Z,7.48
2023-02-02T03:28:58.930Z,7.39
2023-02-02T03:31:29.870Z,7.32
2023-02-02T03:33:58.135Z,7.26
2023-02-02T03:36:28.034Z,7.25
2023-02-02T03:38:56.008Z,7.24
2023-02-02T03:41:24.046Z,7.23
2023-02-02T03:43:52.100Z,7.21
2023-02-02T03:46:20.209Z,7.19
2023-02-02T03:48:48.304Z,7.18
2023-02-02T03:51:16.450Z,7.16
2023-02-02T03:53:47.754Z,7.15
2023-02-02T03:56:16.627Z,7.15
2023-02-02T03:58:46.429Z,7.14
2023-02-02T04:01:15.673Z,7.10
2023-02-02T04:03:43.848Z,7.03
2023-02-02T04:06:11.900Z,7.00
2023-02-02T04:08:40.422Z,6.99
2023-02-02T04:11:12.429Z,6.94
2023-02-02T04:13:43.345Z,6.86
2023-02-02T04:16:12.780Z,6.83
2023-02-02T04:18:43.625Z,6.80
2023-02-02T04:21:11.767Z,6.76
2023-02-02T04:23:39.848Z,6.74
2023-02-02T04:26:08.039Z,6.72
2023-02-02T04:28:37.491Z,6.71
2023-02-02T04:31:05.765Z,6.70
2023-02-02T04:33:36.334Z,6.60
2023-02-02T04:36:05.150Z,6.52
2023-02-02T04:38:33.286Z,6.46
2023-02-02T04:41:07.969Z,6.41
2023-02-02T04:43:38.883Z,6.34
2023-02-02T04:46:07.090Z,6.33
2023-02-02T04:48:35.125Z,6.33
2023-02-02T04:51:04.732Z,6.29
2023-02-02T04:53:33.395Z,6.24
2023-02-02T04:56:07.071Z,6.27
2023-02-02T04:58:35.178Z,6.32
2023-02-02T05:01:10.201Z,6.38
2023-02-02T05:03:38.357Z,6.41
2023-02-02T05:06:07.159Z,6.40
2023-02-02T05:08:35.829Z,6.41
2023-02-02T05:11:08.943Z,6.39
2023-02-02T05:13:37.160Z,6.36
2023-02-02T05:16:07.886Z,6.35
2023-02-02T05:18:35.933Z,6.36
2023-02-02T05:21:04.898Z,6.35
2023-02-02T05:23:32.979Z,6.35
2023-02-02T05:26:01.028Z,6.32
2023-02-02T05:28:29.454Z,6.33
2023-02-02T05:30:57.635Z,6.37
2023-02-02T05:33:27.085Z,6.40
2023-02-02T05:35:55.051Z,6.39
2023-02-02T05:38:23.077Z,6.39
2023-02-02T05:40:51.048Z,6.39
2023-02-02T05:43:21.469Z,6.36
2023-02-02T05:45:49.644Z,6.23
2023-02-02T05:48:17.790Z,6.15
2023-02-02T05:50:50.073Z,6.16
2023-02-02T05:53:18.142Z,6.16
2023-02-02T05:55:46.143Z,6.19
2023-02-02T05:58:14.131Z,6.17
2023-02-02T06:00:42.280Z,6.16
2023-02-02T06:03:10.459Z,6.16
2023-02-02T06:05:38.529Z,6.21
2023-02-02T06:08:07.957Z,6.31
2023-02-02T06:10:35.903Z,6.38
2023-02-02T06:13:03.875Z,6.30
2023-02-02T06:15:33.081Z,6.10
2023-02-02T06:18:01.427Z,5.95
2023-02-02T06:20:29.821Z,5.95
2023-02-02T06:22:57.847Z,5.94
2023-02-02T06:25:27.554Z,5.87
2023-02-02T06:27:57.286Z,5.84
2023-02-02T06:30:25.356Z,5.80
2023-02-02T06:32:53.433Z,5.78
2023-02-02T06:35:21.540Z,5.77
2023-02-02T06:37:49.523Z,5.73
2023-02-02T06:40:18.170Z,5.65
2023-02-02T06:42:47.773Z,5.58
2023-02-02T06:45:16.090Z,5.57
2023-02-02T06:47:44.039Z,5.57
2023-02-02T06:50:12.975Z,5.57
2023-02-02T06:52:40.935Z,5.61
2023-02-02T06:55:09.501Z,5.67
2023-02-02T06:57:37.497Z,5.66
2023-02-02T07:00:12.131Z,5.61
2023-02-02T07:02:40.277Z,5.56
2023-02-02T07:05:08.592Z,5.46
2023-02-02T07:07:36.919Z,5.44
2023-02-02T07:10:05.161Z,5.44
2023-02-02T07:12:33.303Z,5.47
2023-02-02T07:15:01.319Z,5.55
2023-02-02T07:17:31.111Z,5.64
2023-02-02T07:19:59.156Z,5.73
2023-02-02T07:22:27.120Z,5.77
2023-02-02T07:24:55.081Z,5.78
2023-02-02T07:27:23.142Z,5.77
2023-02-02T07:29:51.158Z,5.72
2023-02-02T07:32:19.173Z,5.76
2023-02-02T07:34:48.625Z,5.76
2023-02-02T07:37:16.659Z,5.68
2023-02-02T07:39:44.762Z,5.65
2023-02-02T07:42:12.993Z,5.64
2023-02-02T07:44:41.069Z,5.57
2023-02-02T07:47:09.596Z,5.57
2023-02-02T07:49:37.596Z,5.54
2023-02-02T07:52:07.078Z,5.54
2023-02-02T07:54:35.194Z,5.53
2023-02-02T07:57:03.237Z,5.47
2023-02-02T07:59:32.429Z,5.41
2023-02-02T08:02:00.775Z,5.36
2023-02-02T08:04:28.934Z,5.42
2023-02-02T08:06:57.120Z,5.51
2023-02-02T08:09:26.605Z,5.59
2023-02-02T08:11:54.844Z,5.69
2023-02-02T08:14:22.813Z,5.78
2023-02-02T08:16:50.869Z,5.81
2023-02-02T08:19:18.998Z,5.85
2023-02-02T08:21:47.114Z,5.89
2023-02-02T08:24:15.204Z,5.89
2023-02-02T08:26:44.721Z,5.82
2023-02-02T08:29:17.257Z,5.80
2023-02-02T08:31:46.155Z,5.79
2023-02-02T08:34:15.071Z,5.82
2023-02-02T08:36:43.532Z,5.86
2023-02-02T08:39:13.302Z,5.89
2023-02-02T08:41:41.534Z,5.95
2023-02-02T08:44:13.136Z,5.97
2023-02-02T08:46:41.566Z,5.99
2023-02-02T08:49:12.369Z,6.00
2023-02-02T08:51:40.606Z,5.99
2023-02-02T08:54:08.927Z,5.97
2023-02-02T08:56:36.950Z,5.93
2023-02-02T08:59:06.451Z,5.85
2023-02-02T09:01:36.718Z,5.81
2023-02-02T09:04:06.616Z,5.83
2023-02-02T09:06:36.605Z,5.87
2023-02-02T09:09:05.730Z,5.91
2023-02-02T09:11:34.040Z,5.96
2023-02-02T09:14:03.290Z,6.03
2023-02-02T09:16:31.454Z,6.09
2023-02-02T09:19:00.922Z,6.12
2023-02-02T09:21:28.978Z,6.17
2023-02-02T09:23:57.033Z,6.23
2023-02-02T09:26:26.931Z,6.33
2023-02-02T09:28:56.953Z,6.39
2023-02-02T09:31:26.218Z,6.46
2023-02-02T09:33:54.321Z,6.53
2023-02-02T09:36:26.965Z,6.56
2023-02-02T09:38:55.547Z,6.56
2023-02-02T09:41:52.332Z,6.67
2023-02-02T09:44:35.576Z,6.75
2023-02-02T09:47:13.829Z,6.79
2023-02-02T09:49:53.413Z,6.82
2023-02-02T09:52:30.239Z,6.85
2023-02-02T09:55:04.459Z,6.86
2023-02-02T09:57:39.031Z,6.87
2023-02-02T10:00:17.214Z,6.87
2023-02-02T10:02:47.253Z,6.88
2023-02-02T10:05:21.068Z,6.88
2023-02-02T10:07:56.979Z,6.86
2023-02-02T10:10:29.867Z,6.89
2023-02-02T10:13:06.104Z,6.90
2023-02-02T10:15:39.561Z,6.90
2023-02-02T10:18:15.299Z,6.88
2023-02-02T10:20:48.682Z,6.88
2023-02-02T10:23:26.527Z,6.93
2023-02-02T10:25:58.849Z,6.96
2023-02-02T10:28:40.889Z,6.97
2023-02-02T10:31:19.507Z,7.00
2023-02-02T10:34:02.404Z,7.03
2023-02-02T10:36:39.036Z,7.01
2023-02-02T10:39:26.835Z,7.00
2023-02-02T10:42:07.928Z,7.02
2023-02-02T10:44:41.747Z,7.06
2023-02-02T10:47:14.469Z,7.09
2023-02-02T10:49:42.785Z,7.15
2023-02-02T10:52:17.666Z,7.19
2023-02-02T10:54:57.897Z,7.27
2023-02-02T10:57:40.068Z,7.32
2023-02-02T11:00:22.270Z,7.38
2023-02-02T11:02:51.506Z,7.65
2023-02-02T11:05:40.312Z,8.01
2023-02-02T11:08:16.207Z,8.56
2023-02-02T11:10:48.286Z,9.02
2023-02-02T11:13:24.644Z,9.39
2023-02-02T11:15:52.765Z,9.76
2023-02-02T11:18:29.905Z,10.03
2023-02-02T11:20:58.916Z,10.26
2023-02-02T11:23:29.800Z,10.50
2023-02-02T11:26:05.445Z,10.71
2023-02-02T11:28:37.220Z,10.78
2023-02-02T11:31:05.548Z,10.84
2023-02-02T11:33:36.049Z,10.91
2023-02-02T11:36:06.587Z,10.97
2023-02-02T11:38:34.883Z,11.00
2023-02-02T11:41:09.242Z,11.05
2023-02-02T11:43:42.084Z,11.19
2023-02-02T11:46:20.644Z,11.24
2023-02-02T11:48:56.173Z,11.18
2023-02-02T11:51:26.303Z,11.10
2023-02-02T11:54:04.216Z,11.01
2023-02-02T11:56:36.176Z,10.93
2023-02-02T11:59:05.611Z,10.80
2023-02-02T12:01:35.663Z,10.74
2023-02-02T12:04:06.155Z,10.65
2023-02-02T12:06:36.876Z,10.49
2023-02-02T12:09:13.223Z,10.34
2023-02-02T12:11:53.865Z,10.18
2023-02-02T12:14:31.949Z,10.09
2023-02-02T12:17:11.602Z,10.02
2023-02-02T12:19:57.434Z,9.92
2023-02-02T12:22:42.526Z,9.82
2023-02-02T12:25:31.324Z,9.73
2023-02-02T12:28:10.498Z,9.66
2023-02-02T12:30:50.329Z,9.60
2023-02-02T12:33:29.883Z,9.56
2023-02-02T12:36:15.142Z,9.54
2023-02-02T12:39:12.016Z,9.56
2023-02-02T12:41:56.633Z,9.55
2023-02-02T12:44:33.597Z,9.56
2023-02-02T12:47:14.994Z,9.55
2023-02-02T12:50:02.251Z,9.57
2023-02-02T12:52:47.369Z,9.58
2023-02-02T12:55:26.879Z,9.62
2023-02-02T12:58:02.424Z,9.65
2023-02-02T13:01:08.321Z,9.69
2023-02-02T13:03:47.731Z,9.73
2023-02-02T13:09:24.322Z,9.75
2023-02-02T13:11:57.422Z,9.78
2023-02-02T13:14:32.460Z,9.78
2023-02-02T13:17:08.305Z,9.80
2023-02-02T13:19:41.466Z,9.84
2023-02-02T13:22:16.640Z,9.82
2023-02-02T13:24:48.442Z,9.81
2023-02-02T13:27:20.395Z,9.84
2023-02-02T13:29:53.802Z,9.86
2023-02-02T13:32:27.831Z,9.88
2023-02-02T13:35:00.116Z,9.91
2023-02-02T13:37:37.200Z,9.90
2023-02-02T13:40:14.240Z,9.88
2023-02-02T13:42:48.705Z,9.89
2023-02-02T13:45:42.668Z,9.88
2023-02-02T13:48:21.900Z,9.86
2023-02-02T13:51:06.647Z,9.87
2023-02-02T13:53:50.745Z,9.84
2023-02-02T13:56:37.386Z,9.84
2023-02-02T13:59:21.631Z,9.88
2023-02-02T14:01:52.450Z,9.86
2023-02-02T14:04:28.548Z,9.83
2023-02-02T14:06:59.188Z,9.85
2023-02-02T14:09:30.478Z,9.86
2023-02-02T14:12:00.972Z,9.86
2023-02-02T14:14:35.774Z,9.84
2023-02-02T14:17:06.972Z,9.82
2023-02-02T14:19:57.917Z,9.79
2023-02-02T14:22:48.050Z,9.80
2023-02-02T14:25:55.403Z,9.80
2023-02-02T14:28:47.717Z,9.82
2023-02-02T14:31:29.893Z,9.84
2023-02-02T14:34:27.608Z,9.85
2023-02-02T14:37:12.603Z,9.83
2023-02-02T14:39:56.204Z,9.83
2023-02-02T14:42:52.634Z,9.82
2023-02-02T14:45:31.530Z,9.84
2023-02-02T14:48:01.918Z,9.85
2023-02-02T14:50:42.809Z,9.82
2023-02-02T14:53:22.262Z,9.79
2023-02-02T14:55:59.346Z,9.82
2023-02-02T14:58:34.161Z,9.89
2023-02-02T15:01:13.712Z,9.94
2023-02-02T15:03:53.050Z,9.99
2023-02-02T15:06:32.966Z,10.02
2023-02-02T15:09:36.823Z,10.03
2023-02-02T15:12:25.970Z,9.99
2023-02-02T15:14:58.915Z,9.91
2023-02-02T15:17:35.049Z,9.84
2023-02-02T15:20:13.653Z,9.77
2023-02-02T15:22:47.582Z,9.77
2023-02-02T15:25:24.412Z,9.76
2023-02-02T15:27:58.115Z,9.71
2023-02-02T15:30:29.985Z,9.70
2023-02-02T15:32:58.816Z,9.68
2023-02-02T15:35:31.943Z,9.66
2023-02-02T15:38:04.771Z,9.59
2023-02-02T15:40:38.348Z,9.57
2023-02-02T15:43:09.369Z,9.56
2023-02-02T15:45:45.768Z,9.55
2023-02-02T15:48:25.477Z,9.50
2023-02-02T15:50:58.581Z,9.48
2023-02-02T15:53:29.005Z,9.42
2023-02-02T15:55:58.856Z,9.40
2023-02-02T15:58:32.977Z,9.36
2023-02-02T16:01:04.736Z,9.33
2023-02-02T16:03:39.700Z,9.35
2023-02-02T16:06:09.157Z,9.32
2023-02-02T16:08:40.028Z,9.30
2023-02-02T16:11:15.394Z,9.23
2023-02-02T16:13:46.133Z,9.17
2023-02-02T16:16:25.757Z,9.08
2023-02-02T16:19:15.818Z,9.03
2023-02-02T16:21:49.105Z,8.97
2023-02-02T16:24:21.960Z,8.93
2023-02-02T16:26:53.367Z,8.91
2023-02-02T16:29:22.227Z,8.87
2023-02-02T16:31:51.645Z,8.85
2023-02-02T16:34:40.401Z,8.77
2023-02-02T16:37:14.370Z,8.74
2023-02-02T16:39:42.549Z,8.73
2023-02-02T16:42:23.966Z,8.71
2023-02-02T16:44:52.393Z,8.69
2023-02-02T16:47:37.811Z,8.67
2023-02-02T16:50:26.988Z,8.63
2023-02-02T16:52:58.143Z,8.59
2023-02-02T16:55:43.446Z,8.52
2023-02-02T16:58:21.090Z,8.44
2023-02-02T17:01:12.410Z,8.38
2023-02-02T17:03:48.763Z,8.34
2023-02-02T17:06:16.922Z,8.34
2023-02-02T17:08:45.389Z,8.31
2023-02-02T17:11:23.474Z,8.29
2023-02-02T17:13:54.219Z,8.29
2023-02-02T17:16:24.899Z,8.33
2023-02-02T17:18:53.314Z,8.34
2023-02-02T17:21:24.341Z,8.37
2023-02-02T17:23:54.236Z,8.35
2023-02-02T17:26:22.361Z,8.28
2023-02-02T17:28:56.042Z,8.20
2023-02-02T17:31:24.172Z,8.17
2023-02-02T17:33:52.210Z,8.17
2023-02-02T17:36:20.185Z,8.16
2023-02-02T17:38:48.160Z,8.17
2023-02-02T17:41:16.506Z,8.12
2023-02-02T17:43:45.594Z,8.10
2023-02-02T17:46:15.146Z,8.08
2023-02-02T17:48:43.180Z,8.06
2023-02-02T17:51:16.254Z,8.05
2023-02-02T17:53:44.386Z,8.03
2023-02-02T17:56:12.389Z,8.01
2023-02-02T17:58:41.323Z,8.00
2023-02-02T18:01:12.704Z,7.98
2023-02-02T18:03:45.193Z,7.95
2023-02-02T18:06:13.203Z,7.90
2023-02-02T18:08:41.403Z,7.87
2023-02-02T18:11:13.496Z,7.82
2023-02-02T18:13:43.750Z,7.78
2023-02-02T18:16:13.336Z,7.79
2023-02-02T18:18:42.789Z,7.82
2023-02-02T18:21:12.128Z,7.82
2023-02-02T18:23:40.169Z,7.81
2023-02-02T18:26:18.826Z,7.83
2023-02-02T18:28:48.783Z,7.83
2023-02-02T18:31:19.435Z,7.83
2023-02-02T18:33:48.884Z,7.81
2023-02-02T18:36:20.020Z,7.82
2023-02-02T18:38:50.821Z,7.84
2023-02-02T18:41:21.539Z,7.81
2023-02-02T18:43:49.824Z,7.84
2023-02-02T18:46:17.980Z,7.86
2023-02-02T18:48:46.096Z,7.88
2023-02-02T18:51:18.325Z,7.87
2023-02-02T18:53:47.421Z,7.80
2023-02-02T18:56:17.360Z,7.77
2023-02-02T18:58:45.439Z,7.77
2023-02-02T19:01:16.685Z,7.75
2023-02-02T19:03:49.170Z,7.77
2023-02-02T19:06:37.045Z,7.76
2023-02-02T19:09:05.832Z,7.76
2023-02-02T19:11:39.071Z,7.77
2023-02-02T19:14:16.329Z,7.78
2023-02-02T19:16:45.592Z,7.80
2023-02-02T19:19:22.113Z,7.79
2023-02-02T19:21:54.509Z,7.76
2023-02-02T19:24:22.524Z,7.75
2023-02-02T19:26:51.818Z,7.75
2023-02-02T19:29:22.094Z,7.74
2023-02-02T19:31:54.244Z,7.68
2023-02-02T19:34:23.584Z,7.62
2023-02-02T19:36:53.047Z,7.62
2023-02-02T19:39:22.474Z,7.58
2023-02-02T19:42:00.675Z,7.59
2023-02-02T19:44:32.223Z,7.56
2023-02-02T19:47:00.643Z,7.52
2023-02-02T19:49:33.609Z,7.54
2023-02-02T19:52:04.993Z,7.55
2023-02-02T19:54:38.715Z,7.61
2023-02-02T19:57:16.567Z,7.59
2023-02-02T19:59:47.468Z,7.53
2023-02-02T20:02:35.111Z,7.44
2023-02-02T20:05:16.151Z,7.43
2023-02-02T20:07:45.633Z,7.45
2023-02-02T20:10:21.500Z,7.45
2023-02-02T20:12:50.496Z,7.43
2023-02-02T20:15:33.325Z,7.40
2023-02-02T20:18:03.259Z,7.38
2023-02-02T20:20:38.634Z,7.38
2023-02-02T20:23:23.830Z,7.39
2023-02-02T20:25:51.856Z,7.30
2023-02-02T20:28:36.341Z,7.16
2023-02-02T20:31:05.969Z,7.14
2023-02-02T20:33:34.015Z,7.17
2023-02-02T20:36:03.192Z,7.21
2023-02-02T20:38:39.958Z,7.22
2023-02-02T20:41:08.082Z,7.21
2023-02-02T20:43:36.095Z,7.19
2023-02-02T20:46:04.763Z,7.13
2023-02-02T20:48:32.821Z,7.07
2023-02-02T20:51:00.889Z,7.01
2023-02-02T20:53:28.934Z,6.95
2023-02-02T20:56:00.183Z,6.91
2023-02-02T20:58:28.176Z,6.89
2023-02-02T21:00:56.191Z,6.85
2023-02-02T21:03:24.243Z,6.81
2023-02-02T21:05:52.241Z,6.83
2023-02-02T21:08:20.253Z,6.81
2023-02-02T21:10:48.268Z,6.83
2023-02-02T21:13:17.657Z,6.87
2023-02-02T21:15:45.640Z,6.89
2023-02-02T21:18:13.714Z,6.90
2023-02-02T21:20:41.720Z,6.94
2023-02-02T21:23:10.280Z,6.97
2023-02-02T21:25:38.313Z,6.96
2023-02-02T21:28:06.416Z,6.96
2023-02-02T21:30:36.920Z,6.93
2023-02-02T21:33:05.997Z,6.92
2023-02-02T21:35:34.677Z,6.88
2023-02-02T21:38:11.312Z,6.86
2023-02-02T21:40:40.853Z,6.85
2023-02-02T21:43:15.651Z,6.89
2023-02-02T21:45:46.203Z,6.90
2023-02-02T21:48:30.754Z,6.93
2023-02-02T21:51:22.583Z,6.93
2023-02-02T21:53:50.710Z,6.92
2023-02-02T21:56:29.435Z,6.86
2023-02-02T21:58:59.307Z,6.81
2023-02-02T22:01:34.880Z,6.81
2023-02-02T22:04:02.988Z,6.79
2023-02-02T22:06:36.084Z,6.68
2023-02-02T22:09:20.397Z,6.52
2023-02-02T22:11:51.078Z,6.41
2023-02-02T22:14:22.789Z,6.32
2023-02-02T22:16:54.266Z,6.28
2023-02-02T22:19:36.773Z,6.24
2023-02-02T22:22:19.372Z,6.21
2023-02-02T22:24:51.317Z,6.15
2023-02-02T22:27:25.370Z,6.13
2023-02-02T22:29:58.343Z,6.14
2023-02-02T22:32:27.931Z,6.16
2023-02-02T22:34:55.883Z,6.17
2023-02-02T22:37:23.910Z,6.22
2023-02-02T22:39:51.888Z,6.28
2023-02-02T22:42:20.038Z,6.28
2023-02-02T22:44:48.263Z,6.33
2023-02-02T22:47:16.260Z,6.34
2023-02-02T22:49:45.634Z,6.23
2023-02-02T22:52:13.612Z,5.90
2023-02-02T22:54:41.595Z,5.74
2023-02-02T22:57:09.845Z,5.60
2023-02-02T22:59:37.928Z,5.35
2023-02-02T23:02:05.905Z,5.20
2023-02-02T23:04:33.917Z,5.16
2023-02-02T23:07:03.338Z,5.10
2023-02-02T23:09:31.328Z,5.10
2023-02-02T23:11:59.396Z,5.09
2023-02-02T23:14:27.543Z,5.12
2023-02-02T23:16:55.530Z,5.11
2023-02-02T23:19:25.142Z,5.11
2023-02-02T23:21:53.085Z,5.09
2023-02-02T23:24:22.428Z,5.09
2023-02-02T23:26:50.737Z,5.09
2023-02-02T23:29:18.711Z,5.10
2023-02-02T23:31:46.783Z,5.08
2023-02-02T23:34:14.807Z,5.11
2023-02-02T23:36:42.816Z,5.02
2023-02-02T23:39:10.786Z,4.94
2023-02-02T23:41:40.164Z,4.90
2023-02-02T23:44:08.141Z,4.89
2023-02-02T23:46:37.572Z,4.93
2023-02-02T23:49:06.074Z,5.01
2023-02-02T23:51:34.321Z,5.09
2023-02-02T23:54:02.912Z,5.15
2023-02-02T23:56:30.966Z,5.09
2023-02-02T23:59:00.326Z,4.82
